Time;durP1;ratioP1;P1;durP2;ratioP2;P2;SDS_P1;SDS_P2;PMS_P1;PMS_P2;Temp;Humidity;BMP_temperature;BMP_pressure;BME280_temperature;BME280_humidity;BME280_pressure;Samples;Min_cycle;Max_cycle;Signal;HPM_P1;HPM_P2
2022/06/13 00:01:48;;;;;;;5.43;2.43;;;;;;;15.28;63.55;100315.06;6235420;23;20575;-75
2022/06/13 00:04:14;;;;;;;9.93;2.57;;;;;;;15.15;63.43;100313.78;6235632;23;20256;-75
2022/06/13 00:06:39;;;;;;;8.20;2.80;;;;;;;14.73;64.95;100311.16;6235407;23;20503;-76
2022/06/13 00:09:06;;;;;;;8.68;2.42;;;;;;;14.56;65.82;100315.03;6235210;23;20224;-75
2022/06/13 00:11:31;;;;;;;8.88;2.67;;;;;;;14.41;66.50;100315.91;6234863;23;20303;-75
2022/06/13 00:13:57;;;;;;;9.15;3.10;;;;;;;14.31;67.03;100303.03;6235481;23;20020;-75
2022/06/13 00:16:23;;;;;;;8.82;3.10;;;;;;;14.11;67.87;100307.47;6235304;23;20027;-74
2022/06/13 00:18:49;;;;;;;14.68;3.15;;;;;;;14.13;68.34;100298.97;6235242;23;20027;-75
2022/06/13 00:21:26;;;;;;;27.42;4.25;;;;;;;14.12;67.92;100297.28;6235361;23;20280;-75
2022/06/13 00:23:52;;;;;;;7.28;2.90;;;;;;;14.03;67.97;100299.78;6235160;23;20000;-75
2022/06/13 00:26:21;;;;;;;9.25;3.10;;;;;;;13.92;69.28;100298.13;6234319;23;20306;-75
2022/06/13 00:28:47;;;;;;;7.72;2.78;;;;;;;13.71;69.93;100295.41;6235050;23;20548;-75
2022/06/13 00:31:12;;;;;;;16.05;5.28;;;;;;;13.79;69.69;100292.09;6235323;23;20417;-75
2022/06/13 00:33:38;;;;;;;8.65;3.40;;;;;;;13.54;70.48;100277.31;6235664;23;20012;-75
2022/06/13 00:36:03;;;;;;;7.00;2.83;;;;;;;13.54;71.20;100282.78;6235281;23;20019;-75
2022/06/13 00:38:28;;;;;;;10.63;3.17;;;;;;;13.41;71.84;100289.56;6208202;23;20256;-74
2022/06/13 00:40:54;;;;;;;6.75;3.40;;;;;;;13.38;72.09;100285.44;6234592;23;20123;-75
2022/06/13 00:43:19;;;;;;;9.43;3.30;;;;;;;13.35;72.22;100285.16;6235154;23;20322;-75
2022/06/13 00:45:44;;;;;;;6.18;3.03;;;;;;;13.24;71.79;100295.28;6235098;23;20214;-75
2022/06/13 00:48:15;;;;;;;6.95;2.78;;;;;;;13.21;72.12;100284.88;6235578;23;20007;-75
2022/06/13 00:50:46;;;;;;;7.60;2.45;;;;;;;13.24;72.03;100285.16;6235070;23;20084;-76
2022/06/13 00:53:18;;;;;;;9.60;3.10;;;;;;;13.21;72.46;100284.88;6235062;23;20022;-75
2022/06/13 00:55:48;;;;;;;7.80;2.67;;;;;;;13.12;72.74;100287.31;6234868;23;20012;-76
2022/06/13 00:58:14;;;;;;;6.50;2.97;;;;;;;13.13;72.63;100287.06;6235088;23;20004;-75
2022/06/13 01:00:42;;;;;;;7.65;2.85;;;;;;;13.44;71.90;100289.03;6235126;23;20008;-74
2022/06/13 01:03:08;;;;;;;4.93;2.45;;;;;;;13.43;72.22;100280.00;6234621;23;20713;-75
2022/06/13 01:05:37;;;;;;;9.80;3.13;;;;;;;13.73;71.05;100274.84;6235131;23;20165;-75
2022/06/13 01:08:07;;;;;;;6.22;2.42;;;;;;;13.86;70.51;100267.16;6234569;23;20442;-75
2022/06/13 01:13:19;;;;;;;6.47;2.20;;;;;;;13.77;70.21;100275.94;6235516;23;20035;-75
2022/06/13 01:15:51;;;;;;;4.95;2.65;;;;;;;14.02;70.06;100278.94;6234758;23;20008;-75
2022/06/13 01:18:44;;;;;;;9.07;3.42;;;;;;;14.42;68.61;100272.84;6235366;23;20015;-75
2022/06/13 01:21:37;;;;;;;8.63;3.33;;;;;;;14.56;67.08;100278.56;6235219;23;20008;-75
2022/06/13 01:24:43;;;;;;;7.15;2.75;;;;;;;14.45;67.23;100275.03;6234743;23;20012;-75
2022/06/13 01:27:30;;;;;;;9.55;3.00;;;;;;;14.51;66.46;100275.84;6234541;23;20004;-75
2022/06/13 01:29:59;;;;;;;6.43;2.20;;;;;;;14.46;66.83;100273.94;6234635;23;20473;-75
2022/06/13 01:32:51;;;;;;;9.90;2.95;;;;;;;14.56;66.32;100273.88;6234998;23;20034;-76
2022/06/13 01:35:48;;;;;;;13.00;2.90;;;;;;;14.77;65.82;100276.56;6235543;23;20356;-75
2022/06/13 01:38:32;;;;;;;6.70;3.28;;;;;;;14.87;65.51;100261.22;6196734;23;20015;-75
2022/06/13 01:41:16;;;;;;;7.38;2.47;;;;;;;14.85;65.21;100268.91;6234508;23;20314;-75
2022/06/13 01:44:06;;;;;;;10.27;4.82;;;;;;;14.58;65.81;100266.19;6234726;23;20028;-75
2022/06/13 01:46:46;;;;;;;6.13;1.85;;;;;;;14.65;65.88;100267.81;6234939;23;20004;-76
2022/06/13 01:49:37;;;;;;;7.18;2.50;;;;;;;14.43;66.43;100269.00;6234540;23;20015;-75
2022/06/13 01:52:16;;;;;;;6.43;2.83;;;;;;;14.46;66.48;100273.94;6234485;23;20079;-75
2022/06/13 01:54:54;;;;;;;12.13;3.17;;;;;;;14.31;66.85;100278.38;6234554;23;20318;-75
2022/06/13 01:57:38;;;;;;;5.72;2.92;;;;;;;14.40;66.89;100283.28;6234315;23;20008;-75
2022/06/13 02:00:11;;;;;;;12.25;3.05;;;;;;;14.37;67.08;100281.91;6234576;23;20119;-75
2022/06/13 02:02:46;;;;;;;11.88;2.65;;;;;;;14.40;67.66;100291.50;6234456;23;20054;-75
2022/06/13 02:05:33;;;;;;;6.75;2.70;;;;;;;14.51;67.07;100284.88;6234435;23;20000;-75
2022/06/13 02:08:06;;;;;;;17.00;2.55;;;;;;;14.35;66.55;100284.94;6234389;23;20000;-75
2022/06/13 02:10:36;;;;;;;8.32;3.20;;;;;;;14.40;66.56;100284.09;6234872;23;20008;-75
2022/06/13 02:13:07;;;;;;;7.22;3.50;;;;;;;14.35;66.92;100282.19;6207520;23;20315;-75
2022/06/13 02:15:39;;;;;;;9.73;2.90;;;;;;;14.48;66.42;100288.22;6234258;23;20035;-75
2022/06/13 02:18:12;;;;;;;6.60;3.03;;;;;;;14.48;65.81;100288.22;6234159;23;20004;-75
2022/06/13 02:20:40;;;;;;;7.13;3.33;;;;;;;14.56;66.15;100279.38;6236829;23;20008;-75
2022/06/13 02:23:13;;;;;;;6.80;3.60;;;;;;;14.56;66.00;100281.31;6236159;23;20000;-75
2022/06/13 02:25:46;;;;;;;6.43;3.10;;;;;;;14.53;66.18;100281.84;6236038;23;20119;-75
2022/06/13 02:28:20;;;;;;;9.00;3.50;;;;;;;14.40;66.20;100272.31;6236394;23;20008;-75
2022/06/13 02:31:01;;;;;;;11.10;3.58;;;;;;;14.41;65.97;100271.19;6236418;23;19997;-75
2022/06/13 02:33:35;;;;;;;6.85;4.13;;;;;;;14.22;67.55;100269.03;6236431;23;20233;-75
2022/06/13 02:36:28;;;;;;;12.30;2.65;;;;;;;14.10;68.31;100278.38;6236413;23;20011;-75
2022/06/13 02:39:07;;;;;;;9.20;3.20;;;;;;;14.19;67.70;100275.09;6236477;23;20000;-75
2022/06/13 02:41:46;;;;;;;7.75;2.90;;;;;;;14.07;68.95;100276.22;6237018;23;20394;-75
2022/06/13 02:44:25;;;;;;;9.73;3.05;;;;;;;14.16;68.27;100283.84;6236905;23;20007;-75
2022/06/13 02:47:25;;;;;;;11.40;3.63;;;;;;;14.18;67.92;100284.41;6236043;23;20430;-75
2022/06/13 02:49:58;;;;;;;8.27;3.17;;;;;;;14.22;68.11;100280.00;6186661;23;20032;-75
2022/06/13 02:52:40;;;;;;;7.95;3.88;;;;;;;14.34;68.19;100274.22;6236133;23;20326;-75
2022/06/13 02:55:10;;;;;;;8.52;3.40;;;;;;;14.12;68.88;100264.41;6235896;23;20043;-75
2022/06/13 02:58:00;;;;;;;9.98;3.13;;;;;;;14.22;68.72;100263.56;6235770;23;20450;-75
2022/06/13 03:00:40;;;;;;;7.22;2.65;;;;;;;14.14;68.88;100258.66;6236071;23;20015;-76
2022/06/13 03:03:05;;;;;;;18.27;4.90;;;;;;;14.21;68.73;100261.94;6236589;23;20008;-75
2022/06/13 03:05:58;;;;;;;7.57;3.23;;;;;;;14.06;69.45;100260.84;6235889;23;20494;-75
2022/06/13 03:08:48;;;;;;;10.23;3.47;;;;;;;14.15;69.49;100263.84;6235843;23;20011;-75
2022/06/13 03:12:03;;;;;;;6.88;4.38;;;;;;;14.41;68.33;100265.72;6235455;23;20000;-75
2022/06/13 03:14:39;;;;;;;8.27;3.17;;;;;;;14.15;69.28;100271.25;6215476;23;20004;-75
2022/06/13 03:17:26;;;;;;;10.35;3.65;;;;;;;14.05;69.87;100270.19;6236076;23;20000;-75
2022/06/13 03:20:00;;;;;;;7.18;2.95;;;;;;;14.13;68.66;100274.28;6236172;23;20008;-75
2022/06/13 03:22:30;;;;;;;12.15;4.20;;;;;;;14.10;69.06;100272.91;6236035;23;20386;-75
2022/06/13 03:25:10;;;;;;;10.20;3.78;;;;;;;14.24;68.38;100266.84;6235753;23;20016;-75
2022/06/13 03:27:41;;;;;;;12.57;3.47;;;;;;;14.30;67.99;100259.44;6236180;23;20278;-75
2022/06/13 03:30:11;;;;;;;8.23;3.13;;;;;;;14.38;67.55;100269.03;6235564;23;20011;-75
2022/06/13 03:32:44;;;;;;;10.60;2.92;;;;;;;14.30;67.92;100282.19;6235915;23;20031;-75
2022/06/13 03:35:13;;;;;;;10.32;3.55;;;;;;;14.31;68.70;100283.84;6236249;23;20350;-76
2022/06/13 03:37:43;;;;;;;10.00;3.63;;;;;;;14.33;68.74;100276.16;6236056;23;20059;-75
2022/06/13 03:40:23;;;;;;;19.70;6.90;;;;;;;14.47;67.91;100278.31;6235893;23;20004;-75
2022/06/13 03:42:57;;;;;;;11.75;4.32;;;;;;;14.57;67.39;100280.19;6236083;23;20061;-75
2022/06/13 03:45:43;;;;;;;8.55;3.25;;;;;;;14.53;67.29;100270.88;6235201;23;20438;-75
2022/06/13 03:48:32;;;;;;;10.70;3.80;;;;;;;14.55;67.70;100280.50;6235729;23;20005;-74
2022/06/13 03:51:10;;;;;;;9.23;3.25;;;;;;;14.73;66.55;100275.47;6208258;23;20066;-75
2022/06/13 03:53:49;;;;;;;7.47;2.47;;;;;;;14.62;67.11;100277.47;6235741;23;20062;-75
2022/06/13 03:56:31;;;;;;;9.85;3.40;;;;;;;14.69;66.85;100277.16;6235340;23;20497;-75
2022/06/13 03:59:05;;;;;;;10.30;4.03;;;;;;;14.65;67.56;100270.56;6235613;23;20289;-75
2022/06/13 04:01:35;;;;;;;14.32;3.72;;;;;;;14.49;67.22;100270.63;6235790;23;20004;-75
2022/06/13 04:04:01;;;;;;;6.90;3.85;;;;;;;14.54;67.99;100273.34;6235620;23;20004;-75
2022/06/13 04:06:32;;;;;;;15.18;4.40;;;;;;;14.65;67.00;100278.81;6235275;23;20100;-75
2022/06/13 04:09:00;;;;;;;10.27;4.28;;;;;;;14.55;68.05;100283.22;6235114;23;20000;-75
2022/06/13 04:11:37;;;;;;;10.13;4.25;;;;;;;14.58;68.28;100290.09;6235060;23;20633;-75
2022/06/13 04:14:14;;;;;;;12.88;4.18;;;;;;;14.54;68.06;100281.56;6235456;23;20740;-75
2022/06/13 04:17:02;;;;;;;9.80;3.05;;;;;;;14.54;67.88;100281.56;6234838;23;20595;-75
2022/06/13 04:19:48;;;;;;;8.15;3.65;;;;;;;14.56;67.82;100282.13;6234946;23;20457;-74
2022/06/13 04:22:38;;;;;;;10.65;3.72;;;;;;;14.49;68.12;100273.38;6235545;23;20099;-75
2022/06/13 04:25:29;;;;;;;10.07;3.65;;;;;;;14.53;67.88;100274.47;6234729;23;20062;-75
2022/06/13 04:28:06;;;;;;;10.90;3.85;;;;;;;14.63;67.81;100272.78;6234975;23;20012;-75
2022/06/13 04:30:35;;;;;;;14.00;4.10;;;;;;;14.63;67.85;100272.78;6235721;23;20289;-75
2022/06/13 04:33:07;;;;;;;10.13;4.10;;;;;;;14.70;67.37;100273.31;6235086;23;19996;-76
2022/06/13 04:35:35;;;;;;;11.63;3.95;;;;;;;14.73;68.18;100272.75;6235421;23;20054;-75
2022/06/13 04:38:04;;;;;;;9.20;4.05;;;;;;;14.84;68.27;100268.06;6235176;23;20004;-75
2022/06/13 04:40:33;;;;;;;9.85;3.42;;;;;;;14.74;69.00;100268.91;6234648;23;19996;-75
2022/06/13 04:43:01;;;;;;;14.80;5.00;;;;;;;14.84;69.14;100265.31;6234303;23;20004;-75
2022/06/13 04:45:31;;;;;;;11.93;3.53;;;;;;;14.64;69.15;100268.94;6234753;23;20222;-75
2022/06/13 04:47:57;;;;;;;9.85;4.00;;;;;;;14.79;69.32;100274.38;6235001;23;20035;-75
2022/06/13 04:50:34;;;;;;;12.90;4.05;;;;;;;14.99;69.83;100258.94;6234828;23;20004;-75
2022/06/13 04:53:04;;;;;;;10.63;3.67;;;;;;;14.91;69.36;100265.84;6235217;23;20004;-76
2022/06/13 04:55:40;;;;;;;10.27;4.93;;;;;;;14.89;69.43;100265.28;6234734;23;20007;-75
2022/06/13 04:58:26;;;;;;;15.05;6.60;;;;;;;14.77;70.95;100275.75;6234646;23;20023;-75
2022/06/13 05:00:58;;;;;;;11.85;3.60;;;;;;;14.69;70.75;100269.75;6235744;23;20092;-75
2022/06/13 05:03:26;;;;;;;9.02;4.28;;;;;;;14.92;69.42;100263.91;6234819;23;20004;-75
2022/06/13 05:05:56;;;;;;;11.75;5.00;;;;;;;14.98;68.74;100271.03;6235063;23;19996;-75
2022/06/13 05:08:29;;;;;;;13.80;4.72;;;;;;;14.94;69.34;100273.53;6234938;23;20426;-75
2022/06/13 05:11:02;;;;;;;20.13;5.50;;;;;;;15.05;69.54;100279.75;6234200;23;20030;-75
2022/06/13 05:13:28;;;;;;;13.37;6.17;;;;;;;15.02;70.26;100296.81;6234813;23;20008;-75
2022/06/13 05:16:05;;;;;;;12.30;4.88;;;;;;;15.13;70.67;100302.25;6234936;23;19996;-75
2022/06/13 05:18:59;;;;;;;13.40;4.38;;;;;;;14.83;72.26;100318.56;6235176;23;20008;-75
2022/06/13 05:21:38;;;;;;;10.15;4.05;;;;;;;14.55;73.02;100338.09;6235212;23;20063;-75
2022/06/13 05:24:39;;;;;;;12.20;5.05;;;;;;;14.59;74.91;100336.44;6234448;23;20012;-75
2022/06/13 05:27:06;;;;;;;12.35;4.70;;;;;;;14.86;73.35;100330.91;6234491;23;20373;-75
2022/06/13 05:29:32;;;;;;;10.80;4.28;;;;;;;15.00;72.34;100337.47;6234358;23;20326;-75
2022/06/13 05:31:58;;;;;;;13.93;4.80;;;;;;;15.15;72.01;100333.81;6234726;23;20000;-75
2022/06/13 05:34:34;;;;;;;12.63;4.65;;;;;;;15.03;74.29;100331.38;6234375;23;20007;-76
2022/06/13 05:37:01;;;;;;;12.40;5.00;;;;;;;14.68;76.54;100330.41;6234792;23;20000;-75
2022/06/13 05:39:26;;;;;;;18.85;6.22;;;;;;;14.62;77.75;100329.59;6234525;23;20004;-75
2022/06/13 05:41:51;;;;;;;19.30;5.43;;;;;;;14.58;76.46;100332.06;6234241;23;20465;-75
2022/06/13 05:44:17;;;;;;;8.65;4.78;;;;;;;14.63;78.10;100338.63;6234242;23;20015;-76
2022/06/13 05:46:44;;;;;;;16.13;6.72;;;;;;;14.93;77.06;100342.41;6234464;23;20074;-75
2022/06/13 05:49:13;;;;;;;14.30;5.13;;;;;;;14.94;76.14;100344.06;6234330;23;20020;-76
2022/06/13 05:51:39;;;;;;;15.85;5.05;;;;;;;14.91;75.96;100339.94;6234475;23;20004;-75
2022/06/13 05:54:04;;;;;;;19.05;4.68;;;;;;;14.98;76.85;100344.31;6234352;23;20500;-75
2022/06/13 05:56:30;;;;;;;12.75;4.95;;;;;;;15.05;75.53;100351.16;6234196;23;20533;-76
2022/06/13 05:58:56;;;;;;;12.93;4.57;;;;;;;15.13;75.54;100348.94;6234367;23;20035;-75
2022/06/13 06:01:21;;;;;;;19.75;6.53;;;;;;;15.06;75.86;100349.22;6234961;23;20000;-75
2022/06/13 06:03:47;;;;;;;15.65;5.43;;;;;;;15.25;75.18;100360.44;6234785;23;20319;-76
2022/06/13 06:06:16;;;;;;;9.98;4.63;;;;;;;15.29;75.35;100363.41;6236150;23;20008;-85
2022/06/13 06:08:41;;;;;;;23.17;7.13;;;;;;;14.77;77.42;100372.63;6236522;23;20008;-85
2022/06/13 06:11:07;;;;;;;12.52;5.10;;;;;;;14.74;78.19;100362.22;6236029;23;20073;-86
2022/06/13 06:13:32;;;;;;;17.67;5.73;;;;;;;14.57;79.39;100363.34;6236257;23;20011;-82
2022/06/13 06:16:00;;;;;;;13.43;4.72;;;;;;;14.71;79.62;100365.50;6234262;23;20548;-76
2022/06/13 06:18:27;;;;;;;16.15;6.13;;;;;;;14.49;79.28;100369.38;6207418;23;20150;-76
2022/06/13 06:20:52;;;;;;;13.57;5.25;;;;;;;14.55;79.14;100370.19;6234546;23;20034;-76
2022/06/13 06:23:17;;;;;;;17.40;5.55;;;;;;;14.59;78.48;100374.88;6234405;23;20008;-75
2022/06/13 06:25:44;;;;;;;17.77;6.82;;;;;;;14.77;77.86;100375.38;6233912;23;20449;-76
2022/06/13 06:28:16;;;;;;;9.63;4.53;;;;;;;14.90;77.72;100381.41;6234249;23;20003;-76
2022/06/13 06:30:41;;;;;;;15.57;5.40;;;;;;;14.90;76.72;100365.78;6234285;23;20004;-75
2022/06/13 06:33:06;;;;;;;9.38;5.00;;;;;;;14.94;77.40;100372.34;6233925;23;20008;-76
2022/06/13 06:35:33;;;;;;;11.90;4.63;;;;;;;14.94;77.71;100374.25;6234464;23;20105;-76
2022/06/13 06:37:59;;;;;;;15.20;4.80;;;;;;;15.03;77.31;100372.56;6234428;23;20225;-76
2022/06/13 06:40:25;;;;;;;8.48;4.63;;;;;;;14.93;77.35;100370.69;6233785;23;19996;-76
2022/06/13 06:42:51;;;;;;;40.65;6.80;;;;;;;14.91;77.86;100363.81;6234862;23;20291;-76
2022/06/13 06:45:17;;;;;;;15.45;6.85;;;;;;;15.09;76.57;100367.91;6234242;23;20004;-75
2022/06/13 06:47:43;;;;;;;13.05;5.43;;;;;;;15.04;77.29;100366.00;6234609;23;20035;-85
2022/06/13 06:50:17;;;;;;;9.60;5.25;;;;;;;14.93;77.71;100367.13;6236542;23;20427;-84
2022/06/13 06:52:43;;;;;;;15.77;5.53;;;;;;;15.28;76.45;100376.31;6236499;23;20039;-86
2022/06/13 07:00:47;;;;;;;12.27;5.13;;;;;;;15.81;75.63;100376.84;6236730;23;20050;-84
2022/06/13 07:03:13;;;;;;;9.82;4.82;;;;;;;15.79;74.08;100379.06;6236409;23;20008;-85
2022/06/13 07:05:38;;;;;;;10.98;4.57;;;;;;;15.64;73.99;100375.31;6210437;23;20007;-86
2022/06/13 07:08:04;;;;;;;22.30;5.05;;;;;;;15.55;74.47;100382.50;6238615;23;20039;-87
2022/06/13 07:10:30;;;;;;;13.20;4.10;;;;;;;15.40;75.51;100388.91;6238208;23;20019;-88
2022/06/13 07:12:55;;;;;;;10.48;4.57;;;;;;;15.50;76.90;100380.59;6238100;23;20584;-85
2022/06/13 07:15:22;;;;;;;16.58;5.82;;;;;;;15.65;76.29;100389.88;6237891;23;20012;-87
2022/06/13 07:17:47;;;;;;;11.95;5.35;;;;;;;15.78;76.39;100388.44;6238866;23;20007;-86
2022/06/13 07:20:13;;;;;;;8.63;5.10;;;;;;;16.02;74.83;100387.75;6237823;23;20031;-86
2022/06/13 07:22:51;;;;;;;14.32;5.10;;;;;;;15.85;75.38;100393.59;6238525;23;20011;-86
2022/06/13 07:25:20;;;;;;;11.98;5.68;;;;;;;15.83;75.42;100385.63;6236860;23;20019;-86
2022/06/13 07:27:45;;;;;;;10.50;4.90;;;;;;;15.91;76.04;100386.13;6238410;23;20419;-86
2022/06/13 07:30:12;;;;;;;18.83;7.10;;;;;;;15.95;76.62;100388.03;6238295;23;20051;-83
2022/06/13 07:32:38;;;;;;;12.10;5.60;;;;;;;16.01;76.37;100394.31;6237065;23;20248;-76
2022/06/13 07:35:04;;;;;;;11.77;5.85;;;;;;;15.72;76.12;100390.38;6235387;23;20032;-76
2022/06/13 07:40:13;;;;;;;13.98;7.90;;;;;;;16.02;76.91;100400.66;6236415;23;20019;-76
2022/06/13 07:42:46;;;;;;;21.40;9.32;;;;;;;16.54;75.48;100397.47;6209115;23;20004;-76
2022/06/13 07:45:17;;;;;;;18.13;9.07;;;;;;;16.51;74.65;100398.91;6234455;23;20008;-76
2022/06/13 07:47:43;;;;;;;21.48;10.13;;;;;;;16.78;73.23;100404.97;6235994;23;20185;-75
2022/06/13 07:50:12;;;;;;;21.65;10.80;;;;;;;16.78;72.99;100397.50;6235593;23;20030;-75
2022/06/13 07:52:37;;;;;;;27.35;13.20;;;;;;;16.87;72.34;100403.22;6235981;23;20012;-76
2022/06/13 07:55:03;;;;;;;30.53;15.20;;;;;;;16.83;72.49;100396.66;6234670;23;20166;-77
2022/06/13 07:57:28;;;;;;;22.73;11.32;;;;;;;16.83;72.79;100398.56;6235434;23;20222;-77
2022/06/13 07:59:54;;;;;;;22.40;12.68;;;;;;;16.75;74.72;100403.63;6235704;23;20422;-77
2022/06/13 08:02:19;;;;;;;24.90;13.70;;;;;;;16.79;72.78;100403.84;6208973;23;20004;-76
2022/06/13 08:04:45;;;;;;;20.95;12.05;;;;;;;16.66;73.99;100414.44;6235960;23;20016;-76
2022/06/13 08:07:12;;;;;;;23.63;13.25;;;;;;;16.80;73.59;100411.81;6235389;23;20015;-76
2022/06/13 08:09:37;;;;;;;23.95;13.82;;;;;;;16.89;72.40;100406.50;6235671;23;20016;-77
2022/06/13 08:12:04;;;;;;;32.35;13.80;;;;;;;17.21;72.77;100403.41;6235487;23;20019;-77
2022/06/13 08:14:30;;;;;;;31.63;13.15;;;;;;;16.86;72.61;100415.31;6235800;23;20071;-77
2022/06/13 08:16:55;;;;;;;27.85;14.13;;;;;;;17.17;72.28;100418.91;6234890;23;20415;-77
2022/06/13 08:19:21;;;;;;;20.48;13.20;;;;;;;17.55;71.21;100415.41;6235907;23;20091;-77
2022/06/13 08:21:46;;;;;;;28.58;16.60;;;;;;;17.53;70.41;100415.69;6236046;23;20008;-76
2022/06/13 08:24:11;;;;;;;28.23;12.93;;;;;;;17.20;69.53;100412.78;6235413;23;20024;-76
2022/06/13 08:26:36;;;;;;;19.70;11.73;;;;;;;17.42;68.96;100417.75;6234746;23;20249;-77
2022/06/13 08:29:03;;;;;;;24.30;12.93;;;;;;;17.50;68.18;100419.84;6235860;23;20217;-77
2022/06/13 08:31:29;;;;;;;24.42;13.15;;;;;;;17.58;66.32;100406.53;6235564;23;20747;-78
2022/06/13 08:33:55;;;;;;;34.25;13.30;;;;;;;17.31;67.34;100408.78;6236229;23;20008;-85
2022/06/13 08:36:21;;;;;;;25.58;13.23;;;;;;;17.25;66.54;100415.47;6209984;23;20376;-84
2022/06/13 08:38:46;;;;;;;23.95;12.60;;;;;;;17.28;67.87;100420.41;6236739;23;20012;-84
2022/06/13 08:41:14;;;;;;;25.02;12.10;;;;;;;17.35;66.70;100420.06;6237110;23;20331;-84
2022/06/13 08:44:08;;;;;;;53.97;13.05;;;;;;;17.45;67.42;100419.13;6237413;23;20004;-84
2022/06/13 08:46:51;;;;;;;24.33;12.37;;;;;;;17.94;67.07;100425.31;6209535;23;20324;-85
2022/06/13 08:49:36;;;;;;;22.02;12.40;;;;;;;18.01;65.91;100429.63;6237126;23;20083;-83
2022/06/13 08:52:17;;;;;;;24.67;13.73;;;;;;;18.19;66.05;100430.75;6209668;23;20004;-81
2022/06/13 08:54:49;;;;;;;29.13;13.50;;;;;;;18.30;66.20;100428.66;6236295;23;20007;-82
2022/06/13 08:57:15;;;;;;;22.30;14.23;;;;;;;18.43;64.27;100429.81;6235780;23;20426;-85
2022/06/13 08:59:47;;;;;;;21.73;12.40;;;;;;;17.90;65.00;100428.97;6236878;23;20288;-81
2022/06/13 09:02:25;;;;;;;20.90;12.43;;;;;;;18.04;64.50;100434.56;6236789;23;20004;-82
2022/06/13 09:04:57;;;;;;;27.77;14.07;;;;;;;17.80;65.38;100443.72;6236109;23;20446;-84
2022/06/13 09:07:29;;;;;;;20.00;14.05;;;;;;;17.43;66.86;100440.63;6236233;23;20004;-82
2022/06/13 09:10:11;;;;;;;24.48;15.55;;;;;;;17.43;66.98;100451.66;6209518;23;20532;-82
2022/06/13 09:13:12;;;;;;;28.92;16.13;;;;;;;17.22;68.02;100443.63;6236222;23;20004;-81
2022/06/13 09:15:56;;;;;;;32.58;16.23;;;;;;;17.74;67.54;100449.31;6235582;23;20010;-88
2022/06/13 09:18:38;;;;;;;;;;;;;;;17.73;66.29;100452.38;6237616;23;20289;-83
2022/06/13 09:21:13;;;;;;;23.25;15.43;;;;;;;18.15;66.54;100457.28;6237067;23;19910;-87
2022/06/13 09:23:56;;;;;;;32.47;17.15;;;;;;;17.97;66.30;100451.47;6234352;23;20003;-77
2022/06/13 09:26:35;;;;;;;25.27;14.15;;;;;;;18.08;65.71;100452.97;6233326;23;20031;-75
2022/06/13 09:29:23;;;;;;;26.65;14.02;;;;;;;18.02;65.34;100453.34;6233946;23;20312;-76
2022/06/13 09:31:56;;;;;;;32.70;16.15;;;;;;;17.85;64.67;100450.00;6234221;23;20474;-76
2022/06/13 09:34:43;;;;;;;23.95;14.13;;;;;;;17.84;65.32;100453.84;6234520;23;20106;-76
2022/06/13 09:37:27;;;;;;;22.88;13.60;;;;;;;17.84;64.42;100456.63;6234158;23;20082;-76
2022/06/13 09:39:53;;;;;;;32.85;16.48;;;;;;;17.57;64.91;100447.06;6235140;23;20491;-76
2022/06/13 09:42:25;;;;;;;24.95;13.10;;;;;;;17.55;65.79;100456.75;6234450;23;20083;-76
2022/06/13 09:45:07;;;;;;;22.73;14.18;;;;;;;17.33;66.49;100456.16;6234346;23;20046;-79
2022/06/13 09:47:57;;;;;;;19.23;13.27;;;;;;;17.19;66.13;100466.28;6235325;23;20004;-77
2022/06/13 09:50:29;;;;;;;26.85;15.45;;;;;;;17.56;65.80;100463.88;6235186;23;20042;-77
2022/06/13 09:53:08;;;;;;;21.08;13.88;;;;;;;18.02;64.06;100470.69;6234865;23;20087;-77
2022/06/13 09:55:51;;;;;;;23.70;14.73;;;;;;;18.64;62.35;100460.66;6234691;23;20004;-76
2022/06/13 09:58:40;;;;;;;23.80;15.05;;;;;;;18.82;61.89;100454.56;6235082;23;20016;-76
2022/06/13 10:01:38;;;;;;;29.80;14.75;;;;;;;18.45;61.59;100454.38;6234949;23;20008;-76
2022/06/13 10:04:20;;;;;;;21.20;12.18;;;;;;;18.52;60.88;100455.63;6235371;23;20305;-77
2022/06/13 10:06:57;;;;;;;23.65;11.25;;;;;;;18.42;60.63;100448.34;6234867;23;20294;-76
2022/06/13 10:09:35;;;;;;;20.67;10.73;;;;;;;18.50;60.89;100443.25;6235009;23;20040;-76
2022/06/13 10:12:35;;;;;;;20.48;11.52;;;;;;;18.42;61.54;100444.75;6234159;23;20046;-76
2022/06/13 10:15:15;;;;;;;17.42;7.85;;;;;;;18.28;59.51;100459.34;6235079;23;20000;-76
2022/06/13 10:18:20;;;;;;;13.63;5.90;;;;;;;18.06;59.15;100455.19;6234582;23;20016;-76
2022/06/13 10:21:13;;;;;;;17.95;7.30;;;;;;;18.26;58.52;100458.81;6234850;23;20472;-76
2022/06/13 10:24:06;;;;;;;12.65;4.85;;;;;;;18.48;56.02;100462.03;6233757;23;20008;-77
2022/06/13 10:27:10;;;;;;;23.92;6.18;;;;;;;19.04;56.94;100447.56;6234129;23;20358;-78
2022/06/13 10:30:07;;;;;;;12.15;4.75;;;;;;;19.81;54.06;100455.41;6186567;23;20731;-77
2022/06/13 10:32:55;;;;;;;25.15;5.72;;;;;;;20.38;53.34;100443.00;6234911;23;20000;-77
2022/06/13 10:35:37;;;;;;;8.70;4.70;;;;;;;20.11;49.49;100443.97;6233937;23;20012;-75
2022/06/13 10:38:13;;;;;;;11.68;4.03;;;;;;;20.54;47.73;100439.88;6234933;23;20062;-76
2022/06/13 10:40:40;;;;;;;5.97;2.70;;;;;;;19.68;45.74;100438.53;6235389;23;20008;-77
2022/06/13 10:43:06;;;;;;;16.70;3.58;;;;;;;19.77;47.70;100444.13;6236862;23;20038;-76
2022/06/13 10:45:34;;;;;;;14.50;3.63;;;;;;;19.65;47.20;100443.88;6235342;23;20008;-77
2022/06/13 10:48:09;;;;;;;10.23;3.08;;;;;;;20.39;45.52;100443.84;6236969;23;20093;-77
2022/06/13 10:50:40;;;;;;;9.57;3.50;;;;;;;20.62;46.08;100444.66;6237273;23;20012;-76
2022/06/13 10:53:12;;;;;;;10.07;3.42;;;;;;;20.73;45.45;100447.13;6236778;23;20004;-77
2022/06/13 10:55:42;;;;;;;13.85;4.05;;;;;;;21.04;44.79;100440.78;6235665;23;20062;-77
2022/06/13 10:58:22;;;;;;;7.90;1.92;;;;;;;20.79;45.07;100447.84;6236452;23;20040;-76
2022/06/13 11:01:11;;;;;;;14.55;2.90;;;;;;;21.06;43.86;100437.69;6236968;23;20486;-76
2022/06/13 11:03:40;;;;;;;5.30;2.50;;;;;;;20.98;43.30;100442.06;6236882;23;20320;-76
2022/06/13 11:06:15;;;;;;;8.77;2.42;;;;;;;21.08;43.11;100447.34;6235909;23;20050;-76
2022/06/13 11:08:41;;;;;;;7.65;2.60;;;;;;;21.10;44.58;100450.59;6237700;23;20012;-76
2022/06/13 11:11:17;;;;;;;12.80;3.40;;;;;;;20.65;45.07;100446.78;6236185;23;20089;-76
2022/06/13 11:13:52;;;;;;;6.78;2.72;;;;;;;20.46;45.44;100448.94;6237102;23;20326;-76
2022/06/13 11:25:00;;;;;;;16.98;4.32;;;;;;;19.56;47.25;100449.28;6236444;23;20183;-76
2022/06/13 11:27:41;;;;;;;10.57;2.50;;;;;;;19.77;45.41;100440.56;6236537;23;20446;-76
2022/06/13 11:30:28;;;;;;;19.20;3.70;;;;;;;19.85;45.39;100447.28;6237158;23;20293;-76
2022/06/13 11:32:57;;;;;;;12.45;3.47;;;;;;;20.12;46.09;100448.34;6236592;23;20054;-77
2022/06/13 11:35:38;;;;;;;8.80;3.20;;;;;;;20.97;44.31;100441.25;6235061;23;20008;-76
2022/06/13 11:38:15;;;;;;;6.38;2.15;;;;;;;21.31;41.63;100438.94;6235912;23;20011;-76
2022/06/13 11:40:42;;;;;;;6.15;1.90;;;;;;;21.54;43.63;100444.34;6236591;23;20008;-76
2022/06/13 11:43:37;;;;;;;6.68;2.08;;;;;;;22.27;42.02;100447.69;6236397;23;20087;-77
2022/06/13 11:46:07;;;;;;;3.80;1.75;;;;;;;21.97;39.90;100436.44;6195728;23;20479;-76
2022/06/13 11:48:33;;;;;;;2.83;0.93;;;;;;;22.23;39.41;100448.69;6236642;23;20004;-77
2022/06/13 11:51:02;;;;;;;13.60;2.05;;;;;;;22.18;39.08;100458.00;6236440;23;20080;-76
2022/06/13 11:53:37;;;;;;;4.50;1.35;;;;;;;22.30;38.52;100453.72;6236470;23;20053;-77
2022/06/13 11:56:22;;;;;;;3.28;1.90;;;;;;;21.83;39.46;100458.78;6235263;23;20043;-76
2022/06/13 11:58:49;;;;;;;12.15;2.10;;;;;;;21.53;40.25;100456.59;6236226;23;20334;-76
2022/06/13 12:01:21;;;;;;;3.70;1.67;;;;;;;20.95;40.49;100462.09;6236640;23;20007;-76
2022/06/13 12:04:14;;;;;;;3.33;1.50;;;;;;;21.28;40.39;100460.91;6236120;23;20004;-77
2022/06/13 12:06:44;;;;;;;4.75;1.40;;;;;;;21.90;39.91;100461.09;6235444;23;20079;-75
2022/06/13 12:09:19;;;;;;;5.50;2.13;;;;;;;22.50;40.70;100455.84;6236384;23;20143;-83
2022/06/13 12:12:00;;;;;;;7.93;1.63;;;;;;;21.79;37.67;100447.50;6236724;23;20008;-83